Terminal Aerodrome Forecast
Issued by NWS

Home | Current Version | Previous Version | Text Only | Print | Product List | Glossary Off
Versions: 1 2 3 4 5 6 7 8 9 10 11 12 13 14

097
FTUS43 KUNR 261120
TAFGCC
TAF
KGCC 261120Z 2612/2712 17012KT P6SM BKN150
     FM261600 33007KT P6SM SCT100 BKN200
     FM270200 25004KT P6SM SCT250=

USA.gov is the U.S. government's official web portal to all federal, state and local government web resources and services.